Time,TemperatureF,DewpointF,PressureIn,WindDirection,WindDirectionDegrees,WindSpeedMPH,WindSpeedGustMPH,Humidity,HourlyPrecipIn,Conditions,Clouds,dailyrainin,SoftwareType,DateUTC
2013-04-27 00:00:00,57.6,41.6,30.19,SSW,198,5.0,12.0,55,0.00,,---,0.00,VWS V14.01,2013-04-27 04:00:00,
2013-04-27 00:01:00,56.8,42.2,30.19,SW,223,5.0,5.0,58,0.00,,---,0.00,VWS V14.01,2013-04-27 04:01:00,
2013-04-27 00:02:00,56.8,42.2,30.19,South,185,6.0,11.0,58,0.00,,---,0.00,VWS V14.01,2013-04-27 04:02:00,
2013-04-27 00:07:00,56.7,42.1,30.19,SW,229,3.0,11.0,58,0.00,,---,0.00,VWS V14.01,2013-04-27 04:07:00,
2013-04-27 00:10:00,57.6,41.6,30.19,South,177,10.0,14.0,55,0.00,,---,0.00,VWS V14.01,2013-04-27 04:10:00,
2013-04-27 00:12:00,56.7,42.5,30.19,SW,220,2.0,9.0,59,0.00,,---,0.00,VWS V14.01,2013-04-27 04:12:00,
2013-04-27 00:17:00,56.5,42.4,30.20,South,179,7.0,9.0,59,0.00,,---,0.00,VWS V14.01,2013-04-27 04:17:00,
2013-04-27 00:20:00,57.4,41.4,30.19,SW,216,3.0,14.0,55,0.00,,---,0.00,VWS V14.01,2013-04-27 04:20:00,
2013-04-27 00:22:00,56.7,42.5,30.21,SSW,211,0.0,10.0,59,0.00,,---,0.00,VWS V14.01,2013-04-27 04:22:00,
2013-04-27 00:27:00,56.5,42.8,30.22,WSW,256,3.0,11.0,60,0.00,,---,0.00,VWS V14.01,2013-04-27 04:27:00,
2013-04-27 00:30:00,57.0,41.5,30.19,WSW,246,4.0,12.0,56,0.00,,---,0.00,VWS V14.01,2013-04-27 04:30:00,
2013-04-27 00:32:00,55.8,45.0,30.22,SSE,155,3.0,8.0,67,0.01,,---,0.01,VWS V14.01,2013-04-27 04:32:00,
2013-04-27 00:37:00,54.5,45.7,30.22,ESE,110,2.0,8.0,72,0.01,,---,0.01,VWS V14.01,2013-04-27 04:37:00,
2013-04-27 00:40:00,57.0,41.5,30.19,South,175,8.0,13.0,56,0.00,,---,0.00,VWS V14.01,2013-04-27 04:40:00,
2013-04-27 00:42:00,53.6,45.5,30.22,SSE,153,2.0,3.0,74,0.01,,---,0.01,VWS V14.01,2013-04-27 04:42:00,
2013-04-27 00:47:00,52.7,46.0,30.23,South,184,11.0,12.0,78,0.02,,---,0.02,VWS V14.01,2013-04-27 04:47:00,
2013-04-27 00:50:00,56.8,42.2,30.19,SW,235,8.0,12.0,58,0.00,,---,0.00,VWS V14.01,2013-04-27 04:50:00,
2013-04-27 00:52:00,52.7,46.0,30.22,SSW,208,5.0,10.0,78,0.03,,---,0.03,VWS V14.01,2013-04-27 04:52:00,
2013-04-27 00:57:00,52.9,46.2,30.22,South,175,8.0,12.0,78,0.03,,---,0.03,VWS V14.01,2013-04-27 04:57:00,
2013-04-27 01:00:00,56.8,42.2,30.19,SW,228,1.0,16.0,58,0.00,,---,0.00,VWS V14.01,2013-04-27 05:00:00,
2013-04-27 01:02:00,52.7,46.7,30.22,SSE,166,3.0,11.0,80,0.03,,---,0.03,VWS V14.01,2013-04-27 05:02:00,
2013-04-27 01:07:00,52.7,46.7,30.22,South,183,8.0,13.0,80,0.03,,---,0.03,VWS V14.01,2013-04-27 05:07:00,
2013-04-27 01:10:00,56.7,42.1,30.19,South,180,8.0,11.0,58,0.00,,---,0.00,VWS V14.01,2013-04-27 05:10:00,
2013-04-27 01:12:00,52.3,47.0,30.22,SSE,162,9.0,12.0,82,0.04,,---,0.04,VWS V14.01,2013-04-27 05:12:00,
2013-04-27 01:17:00,51.7,47.3,30.22,South,174,7.0,14.0,85,0.05,,---,0.05,VWS V14.01,2013-04-27 05:17:00,
2013-04-27 01:20:00,56.6,42.5,30.21,SW,227,10.0,10.0,59,0.00,,---,0.00,VWS V14.01,2013-04-27 05:20:00,
2013-04-27 01:22:00,51.5,47.5,30.22,SSE,151,3.0,11.0,86,0.05,,---,0.05,VWS V14.01,2013-04-27 05:22:00,
2013-04-27 01:27:00,51.7,47.3,30.22,SSE,163,7.0,11.0,85,0.05,,---,0.05,VWS V14.01,2013-04-27 05:27:00,
2013-04-27 01:30:00,56.2,44.2,30.22,SW,231,3.0,11.0,64,0.00,,---,0.00,VWS V14.01,2013-04-27 05:30:00,
2013-04-27 01:32:00,52.0,47.3,30.22,SSE,162,4.0,9.0,84,0.05,,---,0.05,VWS V14.01,2013-04-27 05:32:00,
2013-04-27 01:37:00,52.1,47.4,30.22,SSE,157,2.0,11.0,84,0.05,,---,0.05,VWS V14.01,2013-04-27 05:37:00,
2013-04-27 01:40:00,54.1,46.0,30.22,SSE,150,3.0,9.0,74,0.01,,---,0.01,VWS V14.01,2013-04-27 05:40:00,
2013-04-27 01:42:00,52.1,47.1,30.22,South,172,6.0,6.0,83,0.04,,---,0.05,VWS V14.01,2013-04-27 05:42:00,
2013-04-27 01:47:00,52.0,47.3,30.22,SE,135,2.0,6.0,84,0.04,,---,0.05,VWS V14.01,2013-04-27 05:47:00,
2013-04-27 01:50:00,52.7,46.0,30.22,South,185,4.0,12.0,78,0.03,,---,0.03,VWS V14.01,2013-04-27 05:50:00,
2013-04-27 01:52:00,52.0,47.3,30.23,SSE,147,2.0,8.0,84,0.02,,---,0.05,VWS V14.01,2013-04-27 05:52:00,
2013-04-27 01:57:00,51.8,47.1,30.23,SSE,147,5.0,8.0,84,0.02,,---,0.05,VWS V14.01,2013-04-27 05:57:00,
2013-04-27 02:00:00,52.7,46.4,30.22,South,182,3.0,12.0,79,0.03,,---,0.03,VWS V14.01,2013-04-27 06:00:00,
2013-04-27 02:02:00,52.0,47.3,30.23,SE,140,0.0,3.0,84,0.02,,---,0.05,VWS V14.01,2013-04-27 06:02:00,
2013-04-27 02:07:00,51.8,47.1,30.23,SE,140,0.0,5.0,84,0.02,,---,0.05,VWS V14.01,2013-04-27 06:07:00,
2013-04-27 02:10:00,52.6,46.9,30.22,SW,222,2.0,13.0,81,0.03,,---,0.03,VWS V14.01,2013-04-27 06:10:00,
2013-04-27 02:12:00,51.5,46.8,30.23,SE,140,1.0,3.0,84,0.02,,---,0.05,VWS V14.01,2013-04-27 06:12:00,
2013-04-27 02:17:00,51.2,47.2,30.23,SE,140,4.0,4.0,86,0.02,,---,0.05,VWS V14.01,2013-04-27 06:17:00,
2013-04-27 02:20:00,51.5,47.5,30.23,SSE,167,7.0,14.0,86,0.05,,---,0.05,VWS V14.01,2013-04-27 06:20:00,
2013-04-27 02:22:00,51.1,47.1,30.23,SE,140,3.0,4.0,86,0.00,,---,0.05,VWS V14.01,2013-04-27 06:22:00,
2013-04-27 02:27:00,51.2,47.2,30.23,SSE,158,4.0,5.0,86,0.00,,---,0.05,VWS V14.01,2013-04-27 06:27:00,
2013-04-27 02:30:00,51.8,47.4,30.23,SSE,166,3.0,11.0,85,0.05,,---,0.05,VWS V14.01,2013-04-27 06:30:00,
2013-04-27 02:32:00,51.5,47.2,30.23,SSE,161,1.0,5.0,85,0.00,,---,0.05,VWS V14.01,2013-04-27 06:32:00,
2013-04-27 02:37:00,51.5,46.8,30.22,SSE,161,3.0,5.0,84,0.00,,---,0.05,VWS V14.01,2013-04-27 06:37:00,
2013-04-27 02:40:00,52.1,47.4,30.22,SSE,159,4.0,11.0,84,0.05,,---,0.05,VWS V14.01,2013-04-27 06:40:00,
2013-04-27 02:42:00,51.5,47.2,30.23,SSE,161,2.0,6.0,85,0.00,,---,0.05,VWS V14.01,2013-04-27 06:42:00,
2013-04-27 02:47:00,51.5,46.8,30.23,SSE,162,4.0,7.0,84,0.00,,---,0.05,VWS V14.01,2013-04-27 06:47:00,
2013-04-27 02:50:00,51.8,47.1,30.22,SSE,162,7.0,9.0,84,0.04,,---,0.05,VWS V14.01,2013-04-27 06:50:00,
2013-04-27 02:52:00,51.7,47.0,30.22,SSE,162,3.0,4.0,84,0.00,,---,0.05,VWS V14.01,2013-04-27 06:52:00,
2013-04-27 02:57:00,51.8,46.8,30.22,SSE,158,0.0,5.0,83,0.00,,---,0.05,VWS V14.01,2013-04-27 06:57:00,
2013-04-27 03:00:00,51.8,47.1,30.23,SE,140,3.0,8.0,84,0.02,,---,0.05,VWS V14.01,2013-04-27 07:00:00,
2013-04-27 03:02:00,52.1,47.1,30.23,SSE,158,1.0,6.0,83,0.00,,---,0.05,VWS V14.01,2013-04-27 07:02:00,
2013-04-27 03:07:00,52.1,47.1,30.22,SSE,165,1.0,8.0,83,0.00,,---,0.05,VWS V14.01,2013-04-27 07:07:00,
2013-04-27 03:10:00,51.7,47.0,30.23,SE,140,1.0,5.0,84,0.02,,---,0.05,VWS V14.01,2013-04-27 07:10:00,
2013-04-27 03:12:00,52.1,47.1,30.22,SSW,205,2.0,8.0,83,0.00,,---,0.05,VWS V14.01,2013-04-27 07:12:00,
2013-04-27 03:17:00,52.4,47.1,30.22,SW,218,1.0,8.0,82,0.00,,---,0.05,VWS V14.01,2013-04-27 07:17:00,
2013-04-27 03:20:00,51.1,47.1,30.23,SE,141,1.0,4.0,86,0.02,,---,0.05,VWS V14.01,2013-04-27 07:20:00,
2013-04-27 03:23:00,52.4,46.8,30.22,SSW,196,2.0,11.0,81,0.00,,---,0.05,VWS V14.01,2013-04-27 07:23:00,
2013-04-27 03:28:00,52.6,46.9,30.22,South,186,2.0,11.0,81,0.00,,---,0.05,VWS V14.01,2013-04-27 07:28:00,
2013-04-27 03:30:00,51.4,47.4,30.22,SE,129,2.0,8.0,86,0.00,,---,0.05,VWS V14.01,2013-04-27 07:30:00,
2013-04-27 03:33:00,52.6,47.3,30.22,SSW,192,2.0,7.0,82,0.00,,---,0.05,VWS V14.01,2013-04-27 07:33:00,
2013-04-27 03:38:00,52.6,47.3,30.22,SW,225,0.0,7.0,82,0.00,,---,0.05,VWS V14.01,2013-04-27 07:38:00,
2013-04-27 03:40:00,51.5,46.8,30.22,South,186,1.0,5.0,84,0.00,,---,0.05,VWS V14.01,2013-04-27 07:40:00,
2013-04-27 03:43:00,52.9,47.6,30.22,SW,223,0.0,8.0,82,0.00,,---,0.05,VWS V14.01,2013-04-27 07:43:00,
2013-04-27 03:48:00,53.0,47.3,30.22,SW,219,2.0,8.0,81,0.00,,---,0.05,VWS V14.01,2013-04-27 07:48:00,
2013-04-27 03:50:00,51.7,47.0,30.22,SSE,162,2.0,7.0,84,0.00,,---,0.05,VWS V14.01,2013-04-27 07:50:00,
2013-04-27 03:53:00,53.0,47.3,30.22,SW,228,2.0,9.0,81,0.00,,---,0.05,VWS V14.01,2013-04-27 07:53:00,
2013-04-27 03:58:00,53.2,47.5,30.22,SSW,208,3.0,10.0,81,0.00,,---,0.05,VWS V14.01,2013-04-27 07:58:00,
2013-04-27 04:00:00,52.0,47.0,30.22,SSE,158,3.0,5.0,83,0.00,,---,0.05,VWS V14.01,2013-04-27 08:00:00,
2013-04-27 04:03:00,53.0,47.0,30.22,SW,223,5.0,8.0,80,0.00,,---,0.05,VWS V14.01,2013-04-27 08:03:00,
2013-04-27 04:08:00,53.2,47.5,30.22,SW,227,3.0,13.0,81,0.00,,---,0.05,VWS V14.01,2013-04-27 08:08:00,
2013-04-27 04:10:00,52.1,46.8,30.22,SSE,165,0.0,8.0,82,0.00,,---,0.05,VWS V14.01,2013-04-27 08:10:00,
2013-04-27 04:13:00,53.2,47.2,30.22,South,184,3.0,14.0,80,0.00,,---,0.05,VWS V14.01,2013-04-27 08:13:00,
2013-04-27 04:18:00,53.2,47.2,30.21,West,267,3.0,14.0,80,0.00,,---,0.05,VWS V14.01,2013-04-27 08:18:00,
2013-04-27 04:20:00,52.4,46.8,30.22,South,171,7.0,8.0,81,0.00,,---,0.05,VWS V14.01,2013-04-27 08:20:00,
2013-04-27 04:23:00,53.1,47.1,30.21,SSW,196,13.0,14.0,80,0.00,,---,0.05,VWS V14.01,2013-04-27 08:23:00,
2013-04-27 04:28:00,53.3,47.3,30.21,WSW,240,2.0,14.0,80,0.00,,---,0.05,VWS V14.01,2013-04-27 08:28:00,
2013-04-27 04:30:00,52.6,46.9,30.22,SSE,162,0.0,11.0,81,0.00,,---,0.05,VWS V14.01,2013-04-27 08:30:00,
2013-04-27 04:33:00,53.2,47.2,30.22,SW,228,2.0,10.0,80,0.00,,---,0.05,VWS V14.01,2013-04-27 08:33:00,
2013-04-27 04:38:00,53.2,47.2,30.22,SW,215,8.0,14.0,80,0.00,,---,0.05,VWS V14.01,2013-04-27 08:38:00,
2013-04-27 04:40:00,52.7,47.0,30.22,South,169,2.0,7.0,81,0.00,,---,0.05,VWS V14.01,2013-04-27 08:40:00,
2013-04-27 04:43:00,53.2,47.2,30.22,NE,41,1.0,15.0,80,0.00,,---,0.00,VWS V14.01,2013-04-27 08:43:00,
2013-04-27 04:48:00,53.0,47.0,30.22,SW,221,7.0,15.0,80,0.00,,---,0.05,VWS V14.01,2013-04-27 08:48:00,
2013-04-27 04:50:00,53.0,47.3,30.21,SSW,212,3.0,8.0,81,0.00,,---,0.05,VWS V14.01,2013-04-27 08:50:00,
2013-04-27 04:53:00,53.0,47.3,30.22,SSW,200,8.0,8.0,81,0.00,,---,0.05,VWS V14.01,2013-04-27 08:53:00,
2013-04-27 04:58:00,53.0,47.3,30.22,WSW,241,6.0,9.0,81,0.00,,---,0.05,VWS V14.01,2013-04-27 08:58:00,
2013-04-27 05:00:00,53.2,47.5,30.22,SSW,196,6.0,10.0,81,0.00,,---,0.05,VWS V14.01,2013-04-27 09:00:00,
2013-04-27 05:03:00,52.8,47.1,30.22,South,181,3.0,9.0,81,0.00,,---,0.05,VWS V14.01,2013-04-27 09:03:00,
2013-04-27 05:08:00,52.7,47.0,30.22,West,263,7.0,9.0,81,0.00,,---,0.05,VWS V14.01,2013-04-27 09:08:00,
2013-04-27 05:10:00,53.0,47.0,30.22,SW,235,11.0,13.0,80,0.00,,---,0.05,VWS V14.01,2013-04-27 09:10:00,
2013-04-27 05:13:00,52.7,47.4,30.22,SE,139,2.0,9.0,82,0.00,,---,0.05,VWS V14.01,2013-04-27 09:13:00,
2013-04-27 05:18:00,52.7,47.0,30.22,South,174,9.0,11.0,81,0.00,,---,0.05,VWS V14.01,2013-04-27 09:18:00,
2013-04-27 05:20:00,53.2,47.2,30.21,WNW,293,1.0,14.0,80,0.00,,---,0.05,VWS V14.01,2013-04-27 09:20:00,
2013-04-27 05:23:00,52.9,47.2,30.22,WSW,244,6.0,11.0,81,0.00,,---,0.05,VWS V14.01,2013-04-27 09:23:00,
2013-04-27 05:28:00,52.9,47.2,30.22,WSW,248,4.0,11.0,81,0.00,,---,0.05,VWS V14.01,2013-04-27 09:28:00,
2013-04-27 05:30:00,53.3,47.3,30.21,WSW,245,9.0,14.0,80,0.00,,---,0.05,VWS V14.01,2013-04-27 09:30:00,
2013-04-27 05:33:00,52.7,47.0,30.22,South,190,6.0,8.0,81,0.00,,---,0.05,VWS V14.01,2013-04-27 09:33:00,
2013-04-27 05:38:00,52.7,47.0,30.21,South,190,3.0,8.0,81,0.00,,---,0.05,VWS V14.01,2013-04-27 09:38:00,
2013-04-27 05:40:00,53.2,47.2,30.22,West,271,1.0,14.0,80,0.00,,---,0.05,VWS V14.01,2013-04-27 09:40:00,
2013-04-27 05:43:00,52.9,46.9,30.22,SSE,166,3.0,10.0,80,0.00,,---,0.05,VWS V14.01,2013-04-27 09:43:00,
2013-04-27 05:48:00,53.0,47.0,30.22,SSW,193,5.0,10.0,80,0.00,,---,0.05,VWS V14.01,2013-04-27 09:48:00,
2013-04-27 05:50:00,53.0,47.3,30.22,SW,228,5.0,15.0,81,0.00,,---,0.05,VWS V14.01,2013-04-27 09:50:00,
2013-04-27 05:54:00,53.0,47.0,30.22,South,172,7.0,12.0,80,0.00,,---,0.05,VWS V14.01,2013-04-27 09:54:00,
2013-04-27 05:59:00,53.0,46.7,30.22,SSW,206,3.0,12.0,79,0.00,,---,0.05,VWS V14.01,2013-04-27 09:59:00,
2013-04-27 06:00:00,53.0,47.3,30.22,South,184,5.0,9.0,81,0.00,,---,0.05,VWS V14.01,2013-04-27 10:00:00,
2013-04-27 06:04:00,53.0,47.0,30.22,WSW,237,1.0,17.0,80,0.00,,---,0.05,VWS V14.01,2013-04-27 10:04:00,
2013-04-27 06:09:00,52.7,46.7,30.22,South,189,2.0,17.0,80,0.00,,---,0.05,VWS V14.01,2013-04-27 10:09:00,
2013-04-27 06:10:00,52.7,47.0,30.22,SW,226,3.0,9.0,81,0.00,,---,0.05,VWS V14.01,2013-04-27 10:10:00,
2013-04-27 06:14:00,52.6,46.9,30.22,SSW,205,3.0,7.0,81,0.00,,---,0.05,VWS V14.01,2013-04-27 10:14:00,
2013-04-27 06:19:00,52.4,46.8,30.22,South,177,5.0,8.0,81,0.00,,---,0.05,VWS V14.01,2013-04-27 10:19:00,
2013-04-27 06:20:00,52.7,47.0,30.22,SW,229,1.0,11.0,81,0.00,,---,0.05,VWS V14.01,2013-04-27 10:20:00,
2013-04-27 06:24:00,52.4,46.8,30.22,South,187,3.0,8.0,81,0.00,,---,0.05,VWS V14.01,2013-04-27 10:24:00,
2013-04-27 06:29:00,52.3,46.7,30.22,South,170,3.0,8.0,81,0.00,,---,0.05,VWS V14.01,2013-04-27 10:29:00,
2013-04-27 06:30:00,52.9,47.2,30.22,SW,219,5.0,11.0,81,0.00,,---,0.05,VWS V14.01,2013-04-27 10:30:00,
2013-04-27 06:34:00,52.3,46.7,30.22,South,179,2.0,9.0,81,0.00,,---,0.05,VWS V14.01,2013-04-27 10:34:00,
2013-04-27 06:39:00,52.1,46.5,30.22,South,183,7.0,9.0,81,0.00,,---,0.05,VWS V14.01,2013-04-27 10:39:00,
2013-04-27 06:40:00,52.7,47.0,30.21,SW,218,2.0,8.0,81,0.00,,---,0.05,VWS V14.01,2013-04-27 10:40:00,
2013-04-27 06:44:00,51.8,46.8,30.22,SSE,158,5.0,7.0,83,0.00,,---,0.05,VWS V14.01,2013-04-27 10:44:00,
2013-04-27 06:49:00,51.7,46.4,30.22,SSW,197,1.0,7.0,82,0.00,,---,0.05,VWS V14.01,2013-04-27 10:49:00,
2013-04-27 06:50:00,53.0,47.0,30.22,South,174,8.0,10.0,80,0.00,,---,0.05,VWS V14.01,2013-04-27 10:50:00,
2013-04-27 06:54:00,51.4,46.1,30.22,SSW,195,0.0,4.0,82,0.00,,---,0.05,VWS V14.01,2013-04-27 10:54:00,
2013-04-27 06:59:00,51.2,46.5,30.22,South,173,3.0,6.0,84,0.00,,---,0.05,VWS V14.01,2013-04-27 10:59:00,
2013-04-27 07:00:00,53.0,46.7,30.21,SSE,166,4.0,12.0,79,0.00,,---,0.05,VWS V14.01,2013-04-27 11:00:00,
2013-04-27 07:04:00,51.1,46.4,30.22,South,174,4.0,7.0,84,0.00,,---,0.05,VWS V14.01,2013-04-27 11:04:00,
2013-04-27 07:09:00,50.9,46.2,30.22,South,179,4.0,7.0,84,0.00,,---,0.05,VWS V14.01,2013-04-27 11:09:00,
2013-04-27 07:10:00,52.7,46.7,30.22,South,172,6.0,17.0,80,0.00,,---,0.05,VWS V14.01,2013-04-27 11:10:00,
2013-04-27 07:14:00,50.9,46.6,30.23,South,182,2.0,6.0,85,0.00,,---,0.05,VWS V14.01,2013-04-27 11:14:00,
2013-04-27 07:19:00,50.9,46.6,30.22,SSW,192,3.0,7.0,85,0.00,,---,0.05,VWS V14.01,2013-04-27 11:19:00,
2013-04-27 07:20:00,52.4,46.8,30.22,South,185,5.0,8.0,81,0.00,,---,0.05,VWS V14.01,2013-04-27 11:20:00,
2013-04-27 07:24:00,51.1,46.8,30.22,South,176,2.0,5.0,85,0.00,,---,0.05,VWS V14.01,2013-04-27 11:24:00,
2013-04-27 07:29:00,51.1,46.8,30.23,South,181,4.0,5.0,85,0.00,,---,0.05,VWS V14.01,2013-04-27 11:29:00,
2013-04-27 07:30:00,52.3,46.7,30.22,SSE,154,6.0,8.0,81,0.00,,---,0.05,VWS V14.01,2013-04-27 11:30:00,
2013-04-27 07:34:00,51.2,46.8,30.22,SSE,168,3.0,7.0,85,0.00,,---,0.05,VWS V14.01,2013-04-27 11:34:00,
2013-04-27 07:39:00,51.4,47.0,30.23,South,170,1.0,7.0,85,0.00,,---,0.05,VWS V14.01,2013-04-27 11:39:00,
2013-04-27 07:40:00,52.0,46.4,30.22,SSE,165,4.0,9.0,81,0.00,,---,0.05,VWS V14.01,2013-04-27 11:40:00,
2013-04-27 07:44:00,51.7,47.0,30.23,SSE,163,3.0,8.0,84,0.00,,---,0.05,VWS V14.01,2013-04-27 11:44:00,
2013-04-27 07:49:00,51.8,47.1,30.23,SSE,160,4.0,8.0,84,0.00,,---,0.05,VWS V14.01,2013-04-27 11:49:00,
2013-04-27 07:50:00,51.7,46.4,30.22,SSW,197,2.0,7.0,82,0.00,,---,0.05,VWS V14.01,2013-04-27 11:50:00,
2013-04-27 07:54:00,52.1,47.4,30.23,SSW,212,2.0,7.0,84,0.00,,---,0.05,VWS V14.01,2013-04-27 11:54:00,
2013-04-27 07:59:00,52.4,47.1,30.23,SSE,160,3.0,7.0,82,0.00,,---,0.05,VWS V14.01,2013-04-27 11:59:00,
2013-04-27 08:00:00,51.2,46.5,30.22,South,184,1.0,6.0,84,0.00,,---,0.05,VWS V14.01,2013-04-27 12:00:00,
2013-04-27 08:04:00,52.7,47.4,30.24,SSE,164,6.0,8.0,82,0.00,,---,0.05,VWS V14.01,2013-04-27 12:04:00,
2013-04-27 08:09:00,53.0,47.7,30.23,South,169,4.0,8.0,82,0.00,,---,0.05,VWS V14.01,2013-04-27 12:09:00,
2013-04-27 08:10:00,50.9,46.2,30.23,South,174,2.0,7.0,84,0.00,,---,0.05,VWS V14.01,2013-04-27 12:10:00,
2013-04-27 08:15:00,53.2,47.5,30.23,SSE,150,2.0,7.0,81,0.00,,---,0.05,VWS V14.01,2013-04-27 12:15:00,
2013-04-27 08:20:00,53.6,47.9,30.23,SE,135,3.0,9.0,81,0.00,,---,0.05,VWS V14.01,2013-04-27 12:20:00,
2013-04-27 08:25:00,53.8,47.5,30.23,SSE,165,4.0,8.0,79,0.00,,---,0.05,VWS V14.01,2013-04-27 12:25:00,
2013-04-27 08:30:00,54.1,47.7,30.24,South,175,3.0,8.0,79,0.00,,---,0.05,VWS V14.01,2013-04-27 12:30:00,
2013-04-27 08:35:00,54.5,48.1,30.24,SSW,213,4.0,8.0,79,0.00,,---,0.05,VWS V14.01,2013-04-27 12:35:00,
2013-04-27 08:40:00,54.6,47.9,30.24,SSE,158,0.0,8.0,78,0.00,,---,0.05,VWS V14.01,2013-04-27 12:40:00,
2013-04-27 08:45:00,54.8,48.1,30.24,SSW,205,2.0,7.0,78,0.00,,---,0.05,VWS V14.01,2013-04-27 12:45:00,
2013-04-27 08:50:00,55.1,48.0,30.24,WSW,238,3.0,4.0,77,0.00,,---,0.05,VWS V14.01,2013-04-27 12:50:00,
2013-04-27 08:55:00,55.1,47.7,30.24,South,169,3.0,10.0,76,0.00,,---,0.05,VWS V14.01,2013-04-27 12:55:00,
2013-04-27 09:00:00,55.3,48.2,30.24,SSE,151,6.0,6.0,77,0.00,,---,0.05,VWS V14.01,2013-04-27 13:00:00,
2013-04-27 09:05:00,55.6,48.2,30.24,South,181,4.0,11.0,76,0.00,,---,0.05,VWS V14.01,2013-04-27 13:05:00,
2013-04-27 09:10:00,55.8,48.0,30.24,South,174,4.0,5.0,75,0.00,,---,0.05,VWS V14.01,2013-04-27 13:10:00,
2013-04-27 09:15:00,56.1,48.3,30.24,SSW,192,1.0,6.0,75,0.00,,---,0.05,VWS V14.01,2013-04-27 13:15:00,
2013-04-27 09:20:00,56.4,48.6,30.24,WNW,294,3.0,3.0,75,0.00,,---,0.05,VWS V14.01,2013-04-27 13:20:00,
2013-04-27 09:25:00,56.7,48.5,30.24,SW,218,1.0,10.0,74,0.00,,---,0.05,VWS V14.01,2013-04-27 13:25:00,
2013-04-27 09:30:00,56.8,48.2,30.24,SSE,152,3.0,4.0,73,0.00,,---,0.05,VWS V14.01,2013-04-27 13:30:00,
2013-04-27 09:35:00,57.0,48.1,30.24,SSW,201,4.0,10.0,72,0.00,,---,0.05,VWS V14.01,2013-04-27 13:35:00,
2013-04-27 09:40:00,57.1,48.5,30.24,SSW,208,2.0,4.0,73,0.00,,---,0.05,VWS V14.01,2013-04-27 13:40:00,
2013-04-27 09:48:00,57.4,48.8,30.24,SW,230,6.0,9.0,73,0.00,,---,0.05,VWS V14.01,2013-04-27 13:48:00,
2013-04-27 09:50:00,55.1,48.4,30.24,SW,233,4.0,7.0,78,0.00,,---,0.05,VWS V14.01,2013-04-27 13:50:00,
2013-04-27 09:53:00,57.7,49.1,30.24,SSW,196,1.0,6.0,73,0.00,,---,0.05,VWS V14.01,2013-04-27 13:53:00,
2013-04-27 09:58:00,57.9,48.9,30.24,SSW,213,1.0,11.0,72,0.00,,---,0.05,VWS V14.01,2013-04-27 13:58:00,
2013-04-27 10:00:00,55.4,48.0,30.24,SSE,149,5.0,10.0,76,0.00,,---,0.05,VWS V14.01,2013-04-27 14:00:00,
2013-04-27 10:03:00,58.2,48.5,30.23,West,266,4.0,9.0,70,0.00,,---,0.05,VWS V14.01,2013-04-27 14:03:00,
2013-04-27 10:08:00,58.3,49.0,30.23,WSW,240,6.0,9.0,71,0.00,,---,0.05,VWS V14.01,2013-04-27 14:08:00,
2013-04-27 10:10:00,55.8,48.4,30.24,South,172,5.0,11.0,76,0.00,,---,0.05,VWS V14.01,2013-04-27 14:10:00,
2013-04-27 10:13:00,58.7,49.3,30.24,SSW,204,5.0,7.0,71,0.00,,---,0.05,VWS V14.01,2013-04-27 14:13:00,
2013-04-27 10:18:00,59.1,49.3,30.23,WSW,256,8.0,11.0,70,0.00,,---,0.05,VWS V14.01,2013-04-27 14:18:00,
2013-04-27 10:20:00,56.4,48.2,30.24,WNW,298,0.0,6.0,74,0.00,,---,0.05,VWS V14.01,2013-04-27 14:20:00,
2013-04-27 10:23:00,59.3,49.9,30.24,SW,233,4.0,8.0,71,0.00,,---,0.05,VWS V14.01,2013-04-27 14:23:00,
2013-04-27 10:28:00,59.4,49.2,30.23,WSW,249,3.0,9.0,69,0.00,,---,0.05,VWS V14.01,2013-04-27 14:28:00,
2013-04-27 10:30:00,56.8,48.2,30.24,SSE,162,4.0,10.0,73,0.00,,---,0.05,VWS V14.01,2013-04-27 14:30:00,
2013-04-27 10:33:00,59.5,49.7,30.23,South,174,3.0,7.0,70,0.00,,---,0.05,VWS V14.01,2013-04-27 14:33:00,
2013-04-27 10:38:00,59.5,49.3,30.23,West,279,5.0,10.0,69,0.00,,---,0.05,VWS V14.01,2013-04-27 14:38:00,
2013-04-27 10:40:00,57.1,48.5,30.24,SSW,210,3.0,10.0,73,0.00,,---,0.05,VWS V14.01,2013-04-27 14:40:00,
2013-04-27 10:43:00,59.9,49.7,30.24,WSW,258,5.0,9.0,69,0.00,,---,0.05,VWS V14.01,2013-04-27 14:43:00,
2013-04-27 10:48:00,59.6,49.4,30.23,WSW,242,1.0,10.0,69,0.00,,---,0.05,VWS V14.01,2013-04-27 14:48:00,
2013-04-27 10:50:00,57.5,48.9,30.24,SSW,194,0.0,9.0,73,0.00,,---,0.05,VWS V14.01,2013-04-27 14:50:00,
2013-04-27 10:54:00,59.7,49.5,30.23,WSW,246,4.0,6.0,69,0.00,,---,0.05,VWS V14.01,2013-04-27 14:54:00,
2013-04-27 10:59:00,60.3,50.1,30.23,West,269,6.0,9.0,69,0.00,,---,0.05,VWS V14.01,2013-04-27 14:59:00,
2013-04-27 11:00:00,58.2,49.6,30.24,SW,225,1.0,11.0,73,0.00,,---,0.05,VWS V14.01,2013-04-27 15:00:00,
2013-04-27 11:04:00,60.5,49.9,30.23,WSW,252,4.0,9.0,68,0.00,,---,0.05,VWS V14.01,2013-04-27 15:04:00,
2013-04-27 11:09:00,61.0,50.4,30.23,SW,216,2.0,9.0,68,0.00,,---,0.05,VWS V14.01,2013-04-27 15:09:00,
2013-04-27 11:10:00,58.3,49.0,30.23,WSW,248,2.0,9.0,71,0.00,,---,0.05,VWS V14.01,2013-04-27 15:10:00,
2013-04-27 11:14:00,61.0,50.8,30.23,SSW,203,5.0,10.0,69,0.00,,---,0.05,VWS V14.01,2013-04-27 15:14:00,
2013-04-27 11:19:00,61.1,50.1,30.23,SE,143,2.0,11.0,67,0.00,,---,0.05,VWS V14.01,2013-04-27 15:19:00,
2013-04-27 11:20:00,59.1,49.3,30.23,WSW,240,1.0,11.0,70,0.00,,---,0.05,VWS V14.01,2013-04-27 15:20:00,
2013-04-27 11:24:00,61.6,50.1,30.23,SSW,210,1.0,9.0,66,0.00,,---,0.05,VWS V14.01,2013-04-27 15:24:00,
2013-04-27 11:29:00,61.8,50.7,30.24,SW,226,4.0,9.0,67,0.00,,---,0.05,VWS V14.01,2013-04-27 15:29:00,
2013-04-27 11:30:00,59.4,49.2,30.24,WSW,253,4.0,9.0,69,0.00,,---,0.05,VWS V14.01,2013-04-27 15:30:00,
2013-04-27 11:34:00,62.1,50.6,30.24,SW,220,5.0,10.0,66,0.00,,---,0.05,VWS V14.01,2013-04-27 15:34:00,
2013-04-27 11:39:00,62.1,50.2,30.24,South,176,2.0,10.0,65,0.00,,---,0.05,VWS V14.01,2013-04-27 15:39:00,
2013-04-27 11:44:00,61.9,50.8,30.24,West,277,4.0,11.0,67,0.00,,---,0.05,VWS V14.01,2013-04-27 15:44:00,
2013-04-27 11:49:00,62.0,50.1,30.23,NW,312,7.0,11.0,65,0.00,,---,0.05,VWS V14.01,2013-04-27 15:49:00,
2013-04-27 11:50:00,59.6,49.4,30.23,WNW,285,1.0,10.0,69,0.00,,---,0.05,VWS V14.01,2013-04-27 15:50:00,
2013-04-27 11:54:00,62.4,50.9,30.23,SSW,207,3.0,10.0,66,0.00,,---,0.05,VWS V14.01,2013-04-27 15:54:00,
2013-04-27 11:59:00,62.9,51.0,30.23,SSW,194,7.0,10.0,65,0.00,,---,0.05,VWS V14.01,2013-04-27 15:59:00,
2013-04-27 12:00:00,60.5,50.3,30.23,West,259,4.0,9.0,69,0.00,,---,0.05,VWS V14.01,2013-04-27 16:00:00,
2013-04-27 12:04:00,63.2,51.2,30.23,West,260,7.0,11.0,65,0.00,,---,0.05,VWS V14.01,2013-04-27 16:04:00,
2013-04-27 12:09:00,63.2,50.8,30.24,SW,235,6.0,11.0,64,0.00,,---,0.05,VWS V14.01,2013-04-27 16:09:00,
2013-04-27 12:10:00,61.0,50.4,30.23,SW,234,3.0,9.0,68,0.00,,---,0.05,VWS V14.01,2013-04-27 16:10:00,
2013-04-27 12:14:00,62.9,50.5,30.23,WSW,257,2.0,8.0,64,0.00,,---,0.05,VWS V14.01,2013-04-27 16:14:00,
2013-04-27 12:19:00,63.3,51.3,30.23,West,270,2.0,11.0,65,0.00,,---,0.05,VWS V14.01,2013-04-27 16:19:00,
2013-04-27 12:20:00,61.3,50.3,30.23,SE,144,2.0,11.0,67,0.00,,---,0.05,VWS V14.01,2013-04-27 16:20:00,
2013-04-27 12:24:00,63.3,50.9,30.23,West,262,1.0,10.0,64,0.00,,---,0.05,VWS V14.01,2013-04-27 16:24:00,
2013-04-27 12:29:00,63.6,50.8,30.23,South,189,5.0,10.0,63,0.00,,---,0.05,VWS V14.01,2013-04-27 16:29:00,
2013-04-27 12:30:00,61.8,50.7,30.24,West,269,6.0,9.0,67,0.00,,---,0.05,VWS V14.01,2013-04-27 16:30:00,
2013-04-27 12:34:00,63.8,50.5,30.22,WSW,252,8.0,12.0,62,0.00,,---,0.05,VWS V14.01,2013-04-27 16:34:00,
2013-04-27 12:39:00,63.6,50.8,30.22,NW,306,9.0,12.0,63,0.00,,---,0.05,VWS V14.01,2013-04-27 16:39:00,
2013-04-27 12:40:00,61.9,50.0,30.24,WSW,237,3.0,10.0,65,0.00,,---,0.05,VWS V14.01,2013-04-27 16:40:00,
2013-04-27 12:44:00,63.6,51.2,30.22,SW,227,3.0,9.0,64,0.00,,---,0.05,VWS V14.01,2013-04-27 16:44:00,
2013-04-27 12:50:00,63.5,50.3,30.22,WSW,256,10.0,10.0,62,0.00,,---,0.05,VWS V14.01,2013-04-27 16:50:00,
2013-04-27 12:55:00,63.6,50.4,30.22,West,262,8.0,12.0,62,0.00,,---,0.05,VWS V14.01,2013-04-27 16:55:00,
2013-04-27 13:00:00,63.8,50.5,30.22,South,189,3.0,6.0,62,0.00,,---,0.05,VWS V14.01,2013-04-27 17:00:00,
2013-04-27 13:05:00,64.4,50.2,30.21,WSW,247,9.0,13.0,60,0.00,,---,0.05,VWS V14.01,2013-04-27 17:05:00,
2013-04-27 13:10:00,64.6,50.0,30.21,West,277,5.0,14.0,59,0.00,,---,0.05,VWS V14.01,2013-04-27 17:10:00,
2013-04-27 13:15:00,64.6,51.3,30.21,WSW,251,6.0,14.0,62,0.00,,---,0.05,VWS V14.01,2013-04-27 17:15:00,
2013-04-27 13:20:00,65.1,50.4,30.21,West,266,7.0,7.0,59,0.00,,---,0.05,VWS V14.01,2013-04-27 17:20:00,
2013-04-27 13:25:00,66.1,50.9,30.20,WSW,237,7.0,11.0,58,0.00,,---,0.05,VWS V14.01,2013-04-27 17:25:00,
2013-04-27 13:30:00,65.9,49.8,30.20,West,277,3.0,3.0,56,0.00,,---,0.05,VWS V14.01,2013-04-27 17:30:00,
2013-04-27 13:35:00,66.0,50.3,30.20,WSW,237,3.0,11.0,57,0.00,,---,0.05,VWS V14.01,2013-04-27 17:35:00,
2013-04-27 13:40:00,66.4,49.8,30.20,SW,220,7.0,8.0,55,0.00,,---,0.05,VWS V14.01,2013-04-27 17:40:00,
2013-04-27 13:45:00,66.0,49.4,30.19,SW,227,2.0,12.0,55,0.00,,---,0.05,VWS V14.01,2013-04-27 17:45:00,
2013-04-27 13:50:00,66.4,49.8,30.20,SW,233,3.0,6.0,55,0.00,,---,0.05,VWS V14.01,2013-04-27 17:50:00,
2013-04-27 13:55:00,66.7,50.0,30.20,WNW,284,9.0,11.0,55,0.00,,---,0.05,VWS V14.01,2013-04-27 17:55:00,
2013-04-27 14:00:00,67.0,50.3,30.19,SW,218,10.0,16.0,55,0.00,,---,0.05,VWS V14.01,2013-04-27 18:00:00,
2013-04-27 14:05:00,67.2,49.5,30.19,SW,216,5.0,16.0,53,0.00,,---,0.05,VWS V14.01,2013-04-27 18:05:00,
2013-04-27 14:10:00,67.0,49.3,30.19,WSW,237,5.0,7.0,53,0.00,,---,0.05,VWS V14.01,2013-04-27 18:10:00,
2013-04-27 14:15:00,66.7,49.0,30.19,West,280,6.0,14.0,53,0.00,,---,0.05,VWS V14.01,2013-04-27 18:15:00,
2013-04-27 14:20:00,67.2,50.0,30.19,East,98,1.0,8.0,54,0.00,,---,0.05,VWS V14.01,2013-04-27 18:20:00,
2013-04-27 14:25:00,67.2,49.5,30.18,SW,214,3.0,15.0,53,0.00,,---,0.05,VWS V14.01,2013-04-27 18:25:00,
2013-04-27 14:30:00,67.5,49.8,30.18,SSE,158,5.0,7.0,53,0.00,,---,0.05,VWS V14.01,2013-04-27 18:30:00,
2013-04-27 14:35:00,67.9,49.7,30.18,WSW,242,8.0,12.0,52,0.00,,---,0.05,VWS V14.01,2013-04-27 18:35:00,
2013-04-27 14:40:00,66.4,51.2,30.20,SSE,166,5.0,11.0,58,0.00,,---,0.05,VWS V14.01,2013-04-27 18:40:00,
2013-04-27 14:41:00,67.9,49.1,30.17,SSW,192,3.0,9.0,51,0.00,,---,0.05,VWS V14.01,2013-04-27 18:41:00,
2013-04-27 14:46:00,68.0,49.7,30.17,South,189,7.0,14.0,52,0.00,,---,0.05,VWS V14.01,2013-04-27 18:46:00,
2013-04-27 14:50:00,66.4,49.8,30.20,WSW,244,6.0,12.0,55,0.00,,---,0.05,VWS V14.01,2013-04-27 18:50:00,
2013-04-27 14:51:00,68.0,49.2,30.17,West,262,8.0,9.0,51,0.00,,---,0.05,VWS V14.01,2013-04-27 18:51:00,
2013-04-27 14:56:00,68.4,49.6,30.17,SW,225,5.0,11.0,51,0.00,,---,0.05,VWS V14.01,2013-04-27 18:56:00,
2013-04-27 15:00:00,67.0,49.8,30.19,South,177,4.0,11.0,54,0.00,,---,0.05,VWS V14.01,2013-04-27 19:00:00,
2013-04-27 15:01:00,68.8,49.4,30.17,WSW,240,4.0,6.0,50,0.00,,---,0.05,VWS V14.01,2013-04-27 19:01:00,
2013-04-27 15:06:00,68.9,48.4,30.17,SW,215,4.0,11.0,48,0.00,,---,0.05,VWS V14.01,2013-04-27 19:06:00,
2013-04-27 15:10:00,67.0,49.3,30.19,SW,216,7.0,16.0,53,0.00,,---,0.05,VWS V14.01,2013-04-27 19:10:00,
2013-04-27 15:11:00,68.9,49.0,30.17,SW,219,8.0,11.0,49,0.00,,---,0.05,VWS V14.01,2013-04-27 19:11:00,
2013-04-27 15:16:00,68.5,48.1,30.17,SW,223,8.0,14.0,48,0.00,,---,0.05,VWS V14.01,2013-04-27 19:16:00,
2013-04-27 15:20:00,67.0,49.3,30.19,SW,225,4.0,14.0,53,0.00,,---,0.05,VWS V14.01,2013-04-27 19:20:00,
2013-04-27 15:21:00,68.7,48.2,30.17,West,279,3.0,11.0,48,0.00,,---,0.05,VWS V14.01,2013-04-27 19:21:00,
2013-04-27 15:26:00,68.8,48.3,30.16,West,263,3.0,12.0,48,0.00,,---,0.05,VWS V14.01,2013-04-27 19:26:00,
2013-04-27 15:30:00,67.4,49.2,30.18,WSW,257,2.0,15.0,52,0.00,,---,0.05,VWS V14.01,2013-04-27 19:30:00,
2013-04-27 15:31:00,68.9,48.4,30.17,WSW,248,5.0,6.0,48,0.00,,---,0.05,VWS V14.01,2013-04-27 19:31:00,
2013-04-27 15:36:00,69.4,48.3,30.16,South,175,5.0,11.0,47,0.00,,---,0.05,VWS V14.01,2013-04-27 19:36:00,
2013-04-27 15:40:00,67.9,49.7,30.17,South,175,4.0,12.0,52,0.00,,---,0.05,VWS V14.01,2013-04-27 19:40:00,
2013-04-27 15:41:00,69.7,48.6,30.16,SW,228,5.0,7.0,47,0.00,,---,0.05,VWS V14.01,2013-04-27 19:41:00,
2013-04-27 15:46:00,69.8,47.5,30.16,SW,219,3.0,14.0,45,0.00,,---,0.05,VWS V14.01,2013-04-27 19:46:00,
2013-04-27 15:50:00,68.0,48.7,30.17,SW,231,4.0,14.0,50,0.00,,---,0.05,VWS V14.01,2013-04-27 19:50:00,
2013-04-27 15:51:00,69.7,47.4,30.16,SSE,149,9.0,9.0,45,0.00,,---,0.05,VWS V14.01,2013-04-27 19:51:00,
2013-04-27 15:56:00,69.8,47.5,30.15,South,191,2.0,16.0,45,0.00,,---,0.05,VWS V14.01,2013-04-27 19:56:00,
2013-04-27 16:00:00,68.7,49.9,30.17,West,267,3.0,11.0,51,0.00,,---,0.05,VWS V14.01,2013-04-27 20:00:00,
2013-04-27 16:01:00,69.7,48.0,30.15,SW,233,4.0,8.0,46,0.00,,---,0.05,VWS V14.01,2013-04-27 20:01:00,
2013-04-27 16:06:00,69.8,46.9,30.15,West,261,9.0,11.0,44,0.00,,---,0.05,VWS V14.01,2013-04-27 20:06:00,
2013-04-27 16:10:00,68.8,49.4,30.16,West,274,7.0,14.0,50,0.00,,---,0.05,VWS V14.01,2013-04-27 20:10:00,
2013-04-27 16:11:00,69.7,47.4,30.15,WSW,252,3.0,7.0,45,0.00,,---,0.05,VWS V14.01,2013-04-27 20:11:00,
2013-04-27 16:16:00,69.8,47.5,30.15,WSW,252,9.0,11.0,45,0.00,,---,0.05,VWS V14.01,2013-04-27 20:16:00,
2013-04-27 16:20:00,68.7,48.2,30.16,SW,221,11.0,14.0,48,0.00,,---,0.05,VWS V14.01,2013-04-27 20:20:00,
2013-04-27 16:21:00,69.8,46.9,30.15,WSW,243,4.0,12.0,44,0.00,,---,0.05,VWS V14.01,2013-04-27 20:21:00,
2013-04-27 16:26:00,69.8,46.3,30.15,SSE,153,8.0,12.0,43,0.00,,---,0.05,VWS V14.01,2013-04-27 20:26:00,
2013-04-27 16:30:00,68.9,48.4,30.17,WSW,251,4.0,12.0,48,0.00,,---,0.05,VWS V14.01,2013-04-27 20:30:00,
2013-04-27 16:31:00,70.0,46.5,30.15,WNW,294,8.0,9.0,43,0.00,,---,0.05,VWS V14.01,2013-04-27 20:31:00,
2013-04-27 16:36:00,70.2,47.3,30.14,West,263,3.0,9.0,44,0.00,,---,0.05,VWS V14.01,2013-04-27 20:36:00,
2013-04-27 16:40:00,69.6,48.5,30.17,WSW,258,5.0,11.0,47,0.00,,---,0.05,VWS V14.01,2013-04-27 20:40:00,
2013-04-27 16:41:00,70.0,46.5,30.14,NW,309,3.0,9.0,43,0.00,,---,0.05,VWS V14.01,2013-04-27 20:41:00,
2013-04-27 16:46:00,70.3,46.2,30.14,West,273,7.0,12.0,42,0.00,,---,0.05,VWS V14.01,2013-04-27 20:46:00,
2013-04-27 16:50:00,69.7,47.4,30.16,SW,222,2.0,14.0,45,0.00,,---,0.05,VWS V14.01,2013-04-27 20:50:00,
2013-04-27 16:51:00,70.3,45.5,30.14,West,276,5.0,5.0,41,0.00,,---,0.05,VWS V14.01,2013-04-27 20:51:00,
2013-04-27 16:56:00,70.0,44.6,30.14,WSW,248,8.0,12.0,40,0.00,,---,0.05,VWS V14.01,2013-04-27 20:56:00,
2013-04-27 17:00:00,69.8,47.5,30.15,SW,222,2.0,16.0,45,0.00,,---,0.05,VWS V14.01,2013-04-27 21:00:00,
2013-04-27 17:01:00,69.8,44.4,30.14,WSW,256,8.0,10.0,40,0.00,,---,0.05,VWS V14.01,2013-04-27 21:01:00,
2013-04-27 17:06:00,69.5,44.2,30.14,West,281,4.0,15.0,40,0.00,,---,0.05,VWS V14.01,2013-04-27 21:06:00,
2013-04-27 17:10:00,69.7,47.4,30.15,SW,225,5.0,11.0,45,0.00,,---,0.05,VWS V14.01,2013-04-27 21:10:00,
2013-04-27 17:11:00,69.4,43.4,30.13,WSW,249,11.0,11.0,39,0.00,,---,0.05,VWS V14.01,2013-04-27 21:11:00,
2013-04-27 17:17:00,68.7,47.1,30.14,North,0,3.0,11.0,46,0.00,,---,0.05,VWS V14.01,2013-04-27 21:17:00,
2013-04-27 17:20:00,69.8,46.9,30.15,NW,308,7.0,12.0,44,0.00,,---,0.05,VWS V14.01,2013-04-27 21:20:00,
2013-04-27 17:22:00,68.0,46.5,30.13,NNW,339,2.0,11.0,46,0.00,,---,0.05,VWS V14.01,2013-04-27 21:22:00,
2013-04-27 17:27:00,67.7,46.8,30.13,North,353,4.0,11.0,47,0.00,,---,0.05,VWS V14.01,2013-04-27 21:27:00,
2013-04-27 17:30:00,69.8,46.3,30.15,West,271,4.0,12.0,43,0.00,,---,0.05,VWS V14.01,2013-04-27 21:30:00,
2013-04-27 17:32:00,67.5,46.0,30.13,WNW,297,4.0,7.0,46,0.00,,---,0.05,VWS V14.01,2013-04-27 21:32:00,
2013-04-27 17:37:00,67.7,46.2,30.13,NW,315,4.0,9.0,46,0.00,,---,0.05,VWS V14.01,2013-04-27 21:37:00,
2013-04-27 17:40:00,70.0,46.5,30.14,SSW,198,2.0,10.0,43,0.00,,---,0.05,VWS V14.01,2013-04-27 21:40:00,
2013-04-27 17:42:00,67.5,45.4,30.14,WNW,302,3.0,5.0,45,0.00,,---,0.05,VWS V14.01,2013-04-27 21:42:00,
2013-04-27 17:47:00,67.4,45.3,30.14,NW,313,3.0,6.0,45,0.00,,---,0.05,VWS V14.01,2013-04-27 21:47:00,
2013-04-27 17:50:00,70.2,44.8,30.14,WSW,242,4.0,12.0,40,0.00,,---,0.05,VWS V14.01,2013-04-27 21:50:00,
2013-04-27 17:52:00,67.4,45.9,30.13,NW,323,3.0,9.0,46,0.00,,---,0.05,VWS V14.01,2013-04-27 21:52:00,
2013-04-27 17:57:00,67.4,45.9,30.13,NW,307,4.0,9.0,46,0.00,,---,0.05,VWS V14.01,2013-04-27 21:57:00,
2013-04-27 18:00:00,69.9,44.5,30.14,West,267,5.0,13.0,40,0.00,,---,0.05,VWS V14.01,2013-04-27 22:00:00,
2013-04-27 18:02:00,67.0,44.4,30.13,NW,322,2.0,8.0,44,0.00,,---,0.05,VWS V14.01,2013-04-27 22:02:00,
2013-04-27 18:07:00,67.0,45.0,30.13,NNW,348,4.0,8.0,45,0.00,,---,0.05,VWS V14.01,2013-04-27 22:07:00,
2013-04-27 18:10:00,69.5,44.2,30.14,West,261,8.0,15.0,40,0.00,,---,0.05,VWS V14.01,2013-04-27 22:10:00,
2013-04-27 18:12:00,66.9,45.5,30.13,NNW,347,4.0,7.0,46,0.00,,---,0.05,VWS V14.01,2013-04-27 22:12:00,
2013-04-27 18:17:00,66.4,45.6,30.13,NNW,337,2.0,7.0,47,0.00,,---,0.05,VWS V14.01,2013-04-27 22:17:00,
2013-04-27 18:20:00,68.4,46.8,30.14,NNW,334,9.0,11.0,46,0.00,,---,0.05,VWS V14.01,2013-04-27 22:20:00,
2013-04-27 18:22:00,66.1,45.3,30.13,NW,304,3.0,7.0,47,0.00,,---,0.05,VWS V14.01,2013-04-27 22:22:00,
2013-04-27 18:27:00,65.6,44.8,30.13,North,353,3.0,7.0,47,0.00,,---,0.05,VWS V14.01,2013-04-27 22:27:00,
2013-04-27 18:30:00,67.5,45.4,30.13,NNW,327,2.0,11.0,45,0.00,,---,0.05,VWS V14.01,2013-04-27 22:30:00,
2013-04-27 18:32:00,65.6,45.4,30.12,NNW,334,1.0,5.0,48,0.00,,---,0.05,VWS V14.01,2013-04-27 22:32:00,
2013-04-27 18:37:00,65.6,45.4,30.12,NNW,335,3.0,5.0,48,0.00,,---,0.05,VWS V14.01,2013-04-27 22:37:00,
2013-04-27 18:40:00,67.7,45.6,30.14,WNW,290,2.0,9.0,45,0.00,,---,0.05,VWS V14.01,2013-04-27 22:40:00,
2013-04-27 18:42:00,65.4,44.7,30.12,NNW,337,4.0,5.0,47,0.00,,---,0.05,VWS V14.01,2013-04-27 22:42:00,
2013-04-27 18:47:00,65.4,44.1,30.12,NNW,340,5.0,5.0,46,0.00,,---,0.05,VWS V14.01,2013-04-27 22:47:00,
2013-04-27 18:50:00,67.5,45.4,30.13,North,4,8.0,9.0,45,0.00,,---,0.05,VWS V14.01,2013-04-27 22:50:00,
2013-04-27 18:52:00,65.4,44.7,30.12,North,351,4.0,6.0,47,0.00,,---,0.05,VWS V14.01,2013-04-27 22:52:00,
2013-04-27 18:57:00,65.3,44.0,30.12,North,0,4.0,7.0,46,0.00,,---,0.05,VWS V14.01,2013-04-27 22:57:00,
2013-04-27 19:00:00,67.2,45.2,30.13,WNW,302,4.0,9.0,45,0.00,,---,0.05,VWS V14.01,2013-04-27 23:00:00,
2013-04-27 19:02:00,64.9,44.2,30.12,North,0,3.0,5.0,47,0.00,,---,0.05,VWS V14.01,2013-04-27 23:02:00,
2013-04-27 19:07:00,64.8,43.6,30.12,North,0,2.0,5.0,46,0.00,,---,0.05,VWS V14.01,2013-04-27 23:07:00,
2013-04-27 19:10:00,67.0,45.6,30.13,NNW,332,2.0,8.0,46,0.00,,---,0.05,VWS V14.01,2013-04-27 23:10:00,
2013-04-27 19:12:00,64.9,43.7,30.12,North,359,2.0,3.0,46,0.00,,---,0.05,VWS V14.01,2013-04-27 23:12:00,
2013-04-27 19:17:00,65.1,43.8,30.12,North,0,3.0,3.0,46,0.00,,---,0.05,VWS V14.01,2013-04-27 23:17:00,
2013-04-27 19:20:00,66.2,46.0,30.13,NNW,338,3.0,7.0,48,0.00,,---,0.05,VWS V14.01,2013-04-27 23:20:00,
2013-04-27 19:22:00,65.1,43.8,30.12,North,0,2.0,4.0,46,0.00,,---,0.05,VWS V14.01,2013-04-27 23:22:00,
2013-04-27 19:27:00,65.1,43.3,30.11,North,0,1.0,4.0,45,0.00,,---,0.05,VWS V14.01,2013-04-27 23:27:00,
2013-04-27 19:30:00,65.6,45.4,30.13,NNW,333,1.0,7.0,48,0.00,,---,0.05,VWS V14.01,2013-04-27 23:30:00,
2013-04-27 19:32:00,64.9,43.7,30.11,North,0,1.0,3.0,46,0.00,,---,0.05,VWS V14.01,2013-04-27 23:32:00,
2013-04-27 19:37:00,64.8,43.6,30.12,North,0,3.0,4.0,46,0.00,,---,0.05,VWS V14.01,2013-04-27 23:37:00,
2013-04-27 19:40:00,65.4,45.2,30.12,NNW,336,2.0,5.0,48,0.00,,---,0.05,VWS V14.01,2013-04-27 23:40:00,
2013-04-27 19:42:00,64.0,45.5,30.12,ENE,62,3.0,7.0,51,0.00,,---,0.05,VWS V14.01,2013-04-27 23:42:00,
2013-04-27 19:47:00,62.5,45.7,30.11,NE,36,4.0,7.0,54,0.00,,---,0.05,VWS V14.01,2013-04-27 23:47:00,
2013-04-27 19:50:00,65.4,44.7,30.12,North,351,4.0,5.0,47,0.00,,---,0.05,VWS V14.01,2013-04-27 23:50:00,
2013-04-27 19:52:00,61.6,44.8,30.11,NE,38,2.0,5.0,54,0.00,,---,0.05,VWS V14.01,2013-04-27 23:52:00,
2013-04-27 19:57:00,61.3,44.5,30.11,NE,38,4.0,5.0,54,0.00,,---,0.05,VWS V14.01,2013-04-27 23:57:00,
2013-04-27 20:00:00,65.1,44.4,30.12,North,0,4.0,7.0,47,0.00,,---,0.05,VWS V14.01,2013-04-28 00:00:00,
2013-04-27 20:03:00,61.0,44.2,30.11,NE,38,2.0,4.0,54,0.00,,---,0.05,VWS V14.01,2013-04-28 00:03:00,
2013-04-27 20:08:00,60.7,44.5,30.11,NE,38,2.0,4.0,55,0.00,,---,0.05,VWS V14.01,2013-04-28 00:08:00,
2013-04-27 20:10:00,65.0,44.3,30.12,North,358,2.0,5.0,47,0.00,,---,0.05,VWS V14.01,2013-04-28 00:10:00,
2013-04-27 20:13:00,60.5,43.8,30.12,NE,38,4.0,5.0,54,0.00,,---,0.05,VWS V14.01,2013-04-28 00:13:00,
2013-04-27 20:18:00,59.7,44.9,30.11,NNE,32,5.0,6.0,58,0.00,,---,0.05,VWS V14.01,2013-04-28 00:18:00,
2013-04-27 20:20:00,65.1,44.4,30.12,North,0,2.0,4.0,47,0.00,,---,0.05,VWS V14.01,2013-04-28 00:20:00,
2013-04-27 20:23:00,58.8,44.1,30.12,NNE,32,4.0,7.0,58,0.00,,---,0.05,VWS V14.01,2013-04-28 00:23:00,
2013-04-27 20:28:00,58.2,44.4,30.11,NE,44,2.0,9.0,60,0.00,,---,0.05,VWS V14.01,2013-04-28 00:28:00,
2013-04-27 20:30:00,65.1,44.9,30.11,North,0,1.0,4.0,48,0.00,,---,0.05,VWS V14.01,2013-04-28 00:30:00,
2013-04-27 20:33:00,57.6,43.8,30.12,NE,35,4.0,8.0,60,0.00,,---,0.05,VWS V14.01,2013-04-28 00:33:00,
2013-04-27 20:38:00,57.0,44.1,30.12,NE,37,4.0,8.0,62,0.00,,---,0.05,VWS V14.01,2013-04-28 00:38:00,
2013-04-27 20:40:00,64.6,45.6,30.11,NNE,14,5.0,6.0,50,0.00,,---,0.05,VWS V14.01,2013-04-28 00:40:00,
2013-04-27 20:43:00,56.1,43.7,30.12,NNE,24,3.0,6.0,63,0.00,,---,0.05,VWS V14.01,2013-04-28 00:43:00,
2013-04-27 20:48:00,55.5,43.5,30.12,NNE,16,3.0,6.0,64,0.00,,---,0.05,VWS V14.01,2013-04-28 00:48:00,
2013-04-27 20:50:00,62.1,44.8,30.11,NE,38,4.0,7.0,53,0.00,,---,0.05,VWS V14.01,2013-04-28 00:50:00,
2013-04-27 20:53:00,54.8,43.3,30.12,NNE,17,3.0,4.0,65,0.00,,---,0.05,VWS V14.01,2013-04-28 00:53:00,
2013-04-27 20:58:00,53.9,42.4,30.12,NNE,17,1.0,4.0,65,0.00,,---,0.05,VWS V14.01,2013-04-28 00:58:00,
2013-04-27 21:00:00,61.1,44.3,30.11,NE,38,2.0,5.0,54,0.00,,---,0.05,VWS V14.01,2013-04-28 01:00:00,
2013-04-27 21:03:00,52.9,41.9,30.12,NNE,17,1.0,4.0,66,0.00,,---,0.05,VWS V14.01,2013-04-28 01:03:00,
2013-04-27 21:08:00,51.8,41.6,30.12,NNE,17,0.0,4.0,68,0.00,,---,0.05,VWS V14.01,2013-04-28 01:08:00,
2013-04-27 21:10:00,60.5,44.3,30.11,NE,38,2.0,4.0,55,0.00,,---,0.05,VWS V14.01,2013-04-28 01:10:00,
2013-04-27 21:13:00,51.2,41.4,30.12,NNE,15,0.0,2.0,69,0.00,,---,0.05,VWS V14.01,2013-04-28 01:13:00,
2013-04-27 21:18:00,50.5,41.1,30.13,NNE,15,1.0,3.0,70,0.00,,---,0.05,VWS V14.01,2013-04-28 01:18:00,
2013-04-27 21:20:00,59.3,44.1,30.12,NNE,28,4.0,6.0,57,0.00,,---,0.05,VWS V14.01,2013-04-28 01:20:00,
2013-04-27 21:23:00,50.1,41.1,30.12,NNE,15,2.0,3.0,71,0.00,,---,0.05,VWS V14.01,2013-04-28 01:23:00,
2013-04-27 21:28:00,49.8,40.8,30.13,NNE,14,2.0,5.0,71,0.00,,---,0.05,VWS V14.01,2013-04-28 01:28:00,
2013-04-27 21:30:00,57.9,44.1,30.12,NE,44,4.0,9.0,60,0.00,,---,0.05,VWS V14.01,2013-04-28 01:30:00,
2013-04-27 21:33:00,49.8,40.4,30.13,NNE,15,1.0,3.0,70,0.00,,---,0.05,VWS V14.01,2013-04-28 01:33:00,
2013-04-27 21:38:00,49.8,40.4,30.13,NNE,15,2.0,3.0,70,0.00,,---,0.05,VWS V14.01,2013-04-28 01:38:00,
2013-04-27 21:40:00,56.7,43.8,30.11,NE,38,5.0,8.0,62,0.00,,---,0.05,VWS V14.01,2013-04-28 01:40:00,
2013-04-27 21:43:00,49.3,40.3,30.13,NNE,15,1.0,4.0,71,0.00,,---,0.05,VWS V14.01,2013-04-28 01:43:00,
2013-04-27 21:48:00,49.0,40.4,30.13,NNE,14,1.0,5.0,72,0.00,,---,0.05,VWS V14.01,2013-04-28 01:48:00,
2013-04-27 21:50:00,55.2,42.8,30.12,NNE,17,4.0,6.0,63,0.00,,---,0.05,VWS V14.01,2013-04-28 01:50:00,
2013-04-27 21:53:00,48.9,40.3,30.13,NNE,14,1.0,4.0,72,0.00,,---,0.05,VWS V14.01,2013-04-28 01:53:00,
2013-04-27 21:58:00,48.8,40.2,30.14,NNE,15,0.0,4.0,72,0.00,,---,0.05,VWS V14.01,2013-04-28 01:58:00,
2013-04-27 22:00:00,53.6,42.1,30.12,NNE,17,4.0,5.0,65,0.00,,---,0.05,VWS V14.01,2013-04-28 02:00:00,
2013-04-27 22:03:00,48.5,39.9,30.14,NNE,15,0.0,2.0,72,0.00,,---,0.05,VWS V14.01,2013-04-28 02:03:00,
2013-04-27 22:08:00,48.2,40.0,30.13,NNE,15,0.0,2.0,73,0.00,,---,0.05,VWS V14.01,2013-04-28 02:08:00,
2013-04-27 22:10:00,51.7,41.5,30.12,NNE,16,0.0,4.0,68,0.00,,---,0.05,VWS V14.01,2013-04-28 02:10:00,
2013-04-27 22:13:00,47.8,39.9,30.13,NNE,15,0.0,0.0,74,0.00,,---,0.05,VWS V14.01,2013-04-28 02:13:00,
2013-04-27 22:18:00,47.7,39.8,30.13,NNE,15,0.0,0.0,74,0.00,,---,0.05,VWS V14.01,2013-04-28 02:18:00,
2013-04-27 22:20:00,50.3,40.9,30.12,NNE,15,0.0,3.0,70,0.00,,---,0.05,VWS V14.01,2013-04-28 02:20:00,
2013-04-27 22:23:00,47.6,39.7,30.13,NNE,17,0.0,0.0,74,0.00,,---,0.05,VWS V14.01,2013-04-28 02:23:00,
2013-04-27 22:28:00,47.3,39.5,30.12,NNE,17,0.0,0.0,74,0.00,,---,0.05,VWS V14.01,2013-04-28 02:28:00,
2013-04-27 22:30:00,49.8,40.4,30.13,NNE,15,1.0,5.0,70,0.00,,---,0.05,VWS V14.01,2013-04-28 02:30:00,
2013-04-27 22:34:00,47.1,39.2,30.12,NNE,17,0.0,0.0,74,0.00,,---,0.05,VWS V14.01,2013-04-28 02:34:00,
2013-04-27 22:39:00,47.1,39.6,30.13,NNE,17,0.0,0.0,75,0.00,,---,0.05,VWS V14.01,2013-04-28 02:39:00,
2013-04-27 22:40:00,49.6,40.2,30.13,NNE,14,0.0,3.0,70,0.00,,---,0.05,VWS V14.01,2013-04-28 02:40:00,
2013-04-27 22:44:00,47.1,39.6,30.13,NNE,17,0.0,0.0,75,0.00,,---,0.05,VWS V14.01,2013-04-28 02:44:00,
2013-04-27 22:49:00,47.0,39.5,30.13,NNE,17,1.0,2.0,75,0.00,,---,0.05,VWS V14.01,2013-04-28 02:49:00,
2013-04-27 22:50:00,49.1,40.5,30.13,NNE,15,4.0,5.0,72,0.00,,---,0.05,VWS V14.01,2013-04-28 02:50:00,
2013-04-27 22:54:00,47.0,39.5,30.13,NNE,17,0.0,0.0,75,0.00,,---,0.05,VWS V14.01,2013-04-28 02:54:00,
2013-04-27 22:59:00,46.8,39.3,30.13,NNE,17,0.0,0.0,75,0.00,,---,0.05,VWS V14.01,2013-04-28 02:59:00,
2013-04-27 23:00:00,48.6,40.0,30.13,NNE,15,0.0,4.0,72,0.00,,---,0.05,VWS V14.01,2013-04-28 03:00:00,
2013-04-27 23:04:00,46.8,39.3,30.13,NNE,17,0.0,2.0,75,0.00,,---,0.05,VWS V14.01,2013-04-28 03:04:00,
2013-04-27 23:09:00,46.8,39.0,30.12,NNE,17,0.0,2.0,74,0.00,,---,0.05,VWS V14.01,2013-04-28 03:09:00,
2013-04-27 23:10:00,48.0,40.1,30.13,NNE,15,0.0,2.0,74,0.00,,---,0.05,VWS V14.01,2013-04-28 03:10:00,
2013-04-27 23:14:00,46.5,39.0,30.12,NNE,17,0.0,0.0,75,0.00,,---,0.05,VWS V14.01,2013-04-28 03:14:00,
2013-04-27 23:19:00,46.4,39.3,30.12,NNE,17,1.0,3.0,76,0.00,,---,0.05,VWS V14.01,2013-04-28 03:19:00,
2013-04-27 23:20:00,47.7,39.8,30.13,NNE,17,0.0,0.0,74,0.00,,---,0.05,VWS V14.01,2013-04-28 03:20:00,
2013-04-27 23:24:00,46.4,39.3,30.13,NNE,17,0.0,2.0,76,0.00,,---,0.05,VWS V14.01,2013-04-28 03:24:00,
2013-04-27 23:29:00,46.1,39.3,30.12,NNE,17,0.0,2.0,77,0.00,,---,0.05,VWS V14.01,2013-04-28 03:29:00,
2013-04-27 23:30:00,47.2,39.3,30.12,NNE,17,0.0,0.0,74,0.00,,---,0.05,VWS V14.01,2013-04-28 03:30:00,
2013-04-27 23:34:00,46.0,39.5,30.12,NNE,17,0.0,1.0,78,0.00,,---,0.05,VWS V14.01,2013-04-28 03:34:00,
2013-04-27 23:39:00,45.7,39.2,30.12,NNE,17,0.0,1.0,78,0.00,,---,0.05,VWS V14.01,2013-04-28 03:39:00,
2013-04-27 23:40:00,47.1,39.6,30.13,NNE,17,0.0,0.0,75,0.00,,---,0.05,VWS V14.01,2013-04-28 03:40:00,
2013-04-27 23:44:00,45.7,39.2,30.12,NNE,17,0.0,1.0,78,0.00,,---,0.05,VWS V14.01,2013-04-28 03:44:00,
2013-04-27 23:49:00,45.7,39.2,30.12,NNE,17,0.0,1.0,78,0.00,,---,0.05,VWS V14.01,2013-04-28 03:49:00,
2013-04-27 23:50:00,47.0,39.5,30.13,NNE,17,0.0,2.0,75,0.00,,---,0.05,VWS V14.01,2013-04-28 03:50:00,
2013-04-27 23:54:00,45.4,39.0,30.12,NNE,17,0.0,0.0,78,0.00,,---,0.05,VWS V14.01,2013-04-28 03:54:00,
2013-04-27 23:59:00,45.4,39.0,30.12,NNE,17,0.0,0.0,78,0.00,,---,0.05,VWS V14.01,2013-04-28 03:59:00,